createdAt,value
2019-03-13T00:02:59.803Z,4.84
2019-03-13T00:06:06.388Z,4.79
2019-03-13T00:09:12.940Z,4.65
2019-03-13T00:12:20.975Z,4.74
2019-03-13T00:15:27.739Z,4.66
2019-03-13T00:18:34.114Z,4.65
2019-03-13T00:21:41.763Z,4.63
2019-03-13T00:24:48.400Z,4.67
2019-03-13T00:27:54.829Z,4.60
2019-03-13T00:31:01.284Z,4.53
2019-03-13T00:34:07.739Z,4.53
2019-03-13T00:37:14.113Z,4.47
2019-03-13T00:40:20.690Z,4.38
2019-03-13T00:43:27.080Z,4.37
2019-03-13T00:46:33.969Z,4.29
2019-03-13T00:49:40.573Z,4.34
2019-03-13T00:52:47.195Z,4.38
2019-03-13T00:55:53.672Z,4.29
2019-03-13T00:59:00.218Z,4.28
2019-03-13T01:02:16.685Z,4.39
2019-03-13T01:05:28.252Z,4.45
2019-03-13T01:08:35.171Z,4.48
2019-03-13T01:11:42.012Z,4.53
2019-03-13T01:14:48.293Z,4.49
2019-03-13T01:17:54.941Z,4.49
2019-03-13T01:21:01.338Z,4.52
2019-03-13T01:24:08.287Z,4.51
2019-03-13T01:27:15.120Z,4.52
2019-03-13T01:30:22.291Z,4.49
2019-03-13T01:33:28.781Z,4.53
2019-03-13T01:36:36.570Z,4.54
2019-03-13T01:39:42.959Z,4.45
2019-03-13T01:42:49.675Z,4.59
2019-03-13T01:45:56.136Z,4.56
2019-03-13T01:49:02.711Z,4.41
2019-03-13T01:52:09.320Z,4.35
2019-03-13T01:55:15.971Z,4.18
2019-03-13T01:58:22.339Z,4.16
2019-03-13T02:01:29.336Z,4.06
2019-03-13T02:04:35.838Z,3.92
2019-03-13T02:07:42.589Z,3.92
2019-03-13T02:10:49.074Z,3.90
2019-03-13T02:13:55.991Z,3.89
2019-03-13T02:17:02.377Z,3.83
2019-03-13T02:20:10.269Z,3.69
2019-03-13T02:23:17.129Z,3.71
2019-03-13T02:26:23.742Z,3.63
2019-03-13T02:29:30.812Z,3.65
2019-03-13T02:32:37.355Z,3.64
2019-03-13T02:35:44.158Z,3.47
2019-03-13T02:38:51.293Z,3.53
2019-03-13T02:41:57.653Z,3.29
2019-03-13T02:45:04.202Z,3.21
2019-03-13T02:48:12.539Z,3.03
2019-03-13T02:51:19.667Z,2.97
2019-03-13T02:54:26.152Z,2.88
2019-03-13T02:57:32.726Z,2.80
2019-03-13T03:01:00.777Z,2.62
2019-03-13T03:04:10.580Z,2.44
2019-03-13T03:07:17.858Z,2.29
2019-03-13T03:10:24.787Z,2.27
2019-03-13T03:13:31.213Z,2.38
2019-03-13T03:16:38.785Z,2.48
2019-03-13T03:19:45.459Z,2.55
2019-03-13T03:22:52.130Z,2.53
2019-03-13T03:25:59.041Z,2.53
2019-03-13T03:29:07.694Z,2.47
2019-03-13T03:32:13.808Z,2.28
2019-03-13T03:35:20.094Z,2.17
2019-03-13T03:38:26.358Z,2.17
2019-03-13T03:41:33.451Z,2.05
2019-03-13T03:44:40.062Z,2.02
2019-03-13T03:47:46.862Z,2.13
2019-03-13T03:50:54.081Z,2.16
2019-03-13T03:54:00.474Z,2.24
2019-03-13T03:57:06.912Z,2.22
2019-03-13T04:00:14.117Z,2.31
2019-03-13T04:03:20.551Z,2.33
2019-03-13T04:06:27.020Z,2.51
2019-03-13T04:09:33.668Z,2.41
2019-03-13T04:12:40.931Z,2.40
2019-03-13T04:15:47.812Z,2.42
2019-03-13T04:18:54.356Z,2.32
2019-03-13T04:22:00.775Z,2.30
2019-03-13T04:25:33.397Z,2.49
2019-03-13T04:28:40.036Z,2.43
2019-03-13T04:31:50.363Z,2.43
2019-03-13T04:34:57.362Z,2.36
2019-03-13T04:38:03.946Z,2.30
2019-03-13T04:41:11.405Z,2.10
2019-03-13T04:44:18.379Z,2.04
2019-03-13T04:47:25.480Z,2.07
2019-03-13T04:50:31.793Z,2.04
2019-03-13T04:53:38.639Z,2.18
2019-03-13T04:56:45.905Z,2.04
2019-03-13T04:59:52.717Z,1.94
2019-03-13T05:02:59.493Z,1.84
2019-03-13T05:06:19.427Z,1.86
2019-03-13T05:09:41.676Z,1.88
2019-03-13T05:12:48.308Z,1.83
2019-03-13T05:15:55.052Z,1.92
2019-03-13T05:19:02.017Z,1.88
2019-03-13T05:22:08.605Z,1.88
2019-03-13T05:25:19.003Z,1.94
2019-03-13T05:28:24.285Z,2.04
2019-03-13T05:31:31.684Z,2.17
2019-03-13T05:34:38.437Z,2.20
2019-03-13T05:37:45.347Z,2.02
2019-03-13T05:40:51.934Z,2.03
2019-03-13T05:43:58.915Z,2.17
2019-03-13T05:47:05.478Z,2.32
2019-03-13T05:50:11.965Z,2.41
2019-03-13T05:53:18.717Z,2.46
2019-03-13T05:56:25.612Z,2.51
2019-03-13T05:59:32.588Z,2.56
2019-03-13T06:02:39.090Z,2.47
2019-03-13T06:05:45.535Z,2.64
2019-03-13T06:08:53.353Z,2.67
2019-03-13T06:12:00.566Z,2.60
2019-03-13T06:15:08.282Z,2.60
2019-03-13T06:18:15.047Z,2.73
2019-03-13T06:21:22.399Z,2.68
2019-03-13T06:24:29.372Z,2.59
2019-03-13T06:27:36.172Z,2.61
2019-03-13T06:30:43.413Z,2.61
2019-03-13T06:33:50.191Z,2.62
2019-03-13T06:36:57.158Z,2.75
2019-03-13T06:40:04.379Z,2.83
2019-03-13T06:43:11.042Z,2.93
2019-03-13T06:46:17.656Z,3.03
2019-03-13T06:49:24.358Z,3.13
2019-03-13T06:52:31.772Z,3.27
2019-03-13T06:55:38.704Z,3.30
2019-03-13T06:59:22.879Z,3.37
2019-03-13T07:02:39.127Z,3.28
2019-03-13T07:06:10.533Z,3.42
2019-03-13T07:09:44.770Z,3.59
2019-03-13T07:12:57.554Z,3.73
2019-03-13T07:16:21.936Z,3.60
2019-03-13T07:19:43.318Z,3.56
2019-03-13T07:23:00.080Z,3.64
2019-03-13T07:26:18.317Z,3.66
2019-03-13T07:29:59.361Z,3.71
2019-03-13T07:33:25.893Z,3.86
2019-03-13T07:36:46.104Z,3.77
2019-03-13T07:40:23.717Z,4.02
2019-03-13T07:43:49.513Z,4.71
2019-03-13T07:47:14.893Z,4.56
2019-03-13T07:50:37.754Z,4.97
2019-03-13T07:53:57.025Z,5.20
2019-03-13T07:57:11.315Z,5.06
2019-03-13T08:00:33.928Z,4.88
2019-03-13T08:04:05.040Z,5.51
2019-03-13T08:07:39.780Z,5.05
2019-03-13T08:10:56.411Z,5.02
2019-03-13T08:14:09.985Z,4.75
2019-03-13T08:17:54.217Z,4.70
2019-03-13T08:21:19.563Z,4.52
2019-03-13T08:25:03.746Z,4.40
2019-03-13T08:28:36.530Z,4.84
2019-03-13T08:32:02.424Z,5.48
2019-03-13T08:35:22.185Z,5.25
2019-03-13T08:38:57.005Z,5.11
2019-03-13T08:42:21.472Z,4.86
2019-03-13T08:45:46.062Z,4.69
2019-03-13T08:49:05.923Z,4.49
2019-03-13T08:52:19.143Z,4.44
2019-03-13T08:55:47.817Z,4.59
2019-03-13T08:59:23.693Z,4.94
2019-03-13T09:02:38.540Z,4.89
2019-03-13T09:06:03.022Z,5.02
2019-03-13T09:09:27.539Z,4.89
2019-03-13T09:12:44.544Z,5.05
2019-03-13T09:16:32.065Z,5.03
2019-03-13T09:19:56.717Z,4.80
2019-03-13T09:23:31.633Z,4.96
2019-03-13T09:27:00.102Z,5.20
2019-03-13T09:30:29.263Z,5.21
2019-03-13T09:33:55.524Z,5.10
2019-03-13T09:37:24.404Z,5.13
2019-03-13T09:41:02.356Z,5.01
2019-03-13T09:44:17.991Z,5.01
2019-03-13T09:47:35.359Z,5.05
2019-03-13T09:50:49.805Z,4.97
2019-03-13T09:54:03.687Z,4.98
2019-03-13T09:57:31.951Z,4.90
2019-03-13T10:00:56.711Z,5.04
2019-03-13T10:04:31.262Z,5.00
2019-03-13T10:07:54.670Z,5.08
2019-03-13T10:11:23.939Z,5.23
2019-03-13T10:14:58.845Z,5.18
2019-03-13T10:18:20.335Z,5.24
2019-03-13T10:22:10.558Z,5.55
2019-03-13T10:25:23.762Z,5.53
2019-03-13T10:28:46.355Z,5.85
2019-03-13T10:32:10.681Z,5.86
2019-03-13T10:35:23.502Z,5.98
2019-03-13T10:38:48.577Z,5.87
2019-03-13T10:42:16.968Z,5.71
2019-03-13T10:45:40.024Z,5.71
2019-03-13T10:48:53.629Z,5.92
2019-03-13T10:52:28.517Z,6.14
2019-03-13T10:55:55.037Z,6.03
2019-03-13T10:59:20.990Z,6.05
2019-03-13T11:02:45.335Z,6.74
2019-03-13T11:06:19.669Z,6.88
2019-03-13T11:09:40.694Z,7.30
2019-03-13T11:13:06.994Z,7.44
2019-03-13T11:16:47.872Z,7.22
2019-03-13T11:20:04.995Z,7.88
2019-03-13T11:23:21.656Z,7.93
2019-03-13T11:26:47.573Z,8.33
2019-03-13T11:30:15.942Z,8.26
2019-03-13T11:33:41.905Z,8.32
2019-03-13T11:37:06.185Z,8.01
2019-03-13T11:40:28.426Z,8.04
2019-03-13T11:44:03.480Z,7.87
2019-03-13T11:47:41.735Z,8.07
2019-03-13T11:50:57.492Z,8.08
2019-03-13T11:54:38.817Z,7.46
2019-03-13T11:58:03.039Z,7.63
2019-03-13T12:01:44.879Z,7.55
2019-03-13T12:05:03.286Z,8.25
2019-03-13T12:08:35.786Z,8.61
2019-03-13T12:11:59.495Z,8.23
2019-03-13T12:15:20.410Z,8.42
2019-03-13T12:18:48.869Z,8.92
2019-03-13T12:22:12.842Z,8.99
2019-03-13T12:25:24.474Z,8.73
2019-03-13T12:28:46.571Z,8.60
2019-03-13T12:32:20.970Z,8.57
2019-03-13T12:35:49.710Z,8.68
2019-03-13T12:39:14.865Z,8.98
2019-03-13T12:42:30.440Z,8.55
2019-03-13T12:45:56.022Z,8.17
2019-03-13T12:49:18.745Z,8.88
2019-03-13T12:52:54.877Z,9.58
2019-03-13T12:56:28.814Z,9.29
2019-03-13T12:59:44.253Z,9.27
2019-03-13T13:02:58.482Z,8.86
2019-03-13T13:06:39.068Z,9.59
2019-03-13T13:10:04.623Z,9.44
2019-03-13T13:13:31.353Z,9.31
2019-03-13T13:16:58.184Z,8.72
2019-03-13T13:20:04.665Z,8.56
2019-03-13T13:23:11.181Z,8.55
2019-03-13T13:26:18.358Z,8.46
2019-03-13T13:29:25.969Z,8.31
2019-03-13T13:32:32.744Z,7.98
2019-03-13T13:35:39.591Z,7.77
2019-03-13T13:38:46.250Z,7.97
2019-03-13T13:41:53.057Z,7.98
2019-03-13T13:44:59.951Z,8.15
2019-03-13T13:48:06.668Z,8.19
2019-03-13T13:51:13.490Z,7.93
2019-03-13T13:54:20.773Z,7.59
2019-03-13T13:57:27.277Z,7.50
2019-03-13T14:00:33.873Z,7.27
2019-03-13T14:03:41.016Z,7.38
2019-03-13T14:06:48.091Z,7.40
2019-03-13T14:09:57.493Z,7.19
2019-03-13T14:13:04.687Z,7.27
2019-03-13T14:16:12.387Z,7.25
2019-03-13T14:19:18.603Z,7.41
2019-03-13T14:22:25.326Z,6.89
2019-03-13T14:25:32.310Z,7.27
2019-03-13T14:28:39.458Z,6.96
2019-03-13T14:31:47.653Z,7.29
2019-03-13T14:34:57.321Z,7.35
2019-03-13T14:38:04.001Z,7.47
2019-03-13T14:41:11.092Z,7.43
2019-03-13T14:44:17.746Z,7.61
2019-03-13T14:47:24.613Z,7.55
2019-03-13T14:50:31.283Z,7.78
2019-03-13T14:53:37.564Z,7.84
2019-03-13T14:56:44.145Z,7.89
2019-03-13T14:59:51.132Z,7.31
2019-03-13T15:02:57.689Z,7.05
2019-03-13T15:06:04.825Z,6.95
2019-03-13T15:09:11.383Z,6.73
2019-03-13T15:12:19.487Z,6.73
2019-03-13T15:15:25.959Z,6.34
2019-03-13T15:18:32.821Z,6.36
2019-03-13T15:21:39.529Z,6.36
2019-03-13T15:24:46.223Z,6.64
2019-03-13T15:27:52.512Z,6.65
2019-03-13T15:30:58.923Z,6.42
2019-03-13T15:34:05.669Z,6.18
2019-03-13T15:37:13.100Z,6.13
2019-03-13T15:40:19.729Z,6.17
2019-03-13T15:43:26.272Z,6.13
2019-03-13T15:46:33.238Z,6.05
2019-03-13T15:49:40.516Z,6.00
2019-03-13T15:52:47.448Z,5.91
2019-03-13T15:55:54.016Z,5.60
2019-03-13T15:59:00.733Z,5.61
2019-03-13T16:02:07.761Z,5.49
2019-03-13T16:05:14.542Z,5.43
2019-03-13T16:08:21.341Z,5.46
2019-03-13T16:11:27.751Z,5.46
2019-03-13T16:14:36.745Z,5.45
2019-03-13T16:17:43.623Z,5.37
2019-03-13T16:20:50.807Z,5.39
2019-03-13T16:23:57.971Z,5.37
2019-03-13T16:27:05.078Z,5.26
2019-03-13T16:30:17.201Z,5.25
2019-03-13T16:33:24.190Z,5.02
2019-03-13T16:36:31.099Z,5.09
2019-03-13T16:39:39.089Z,5.11
2019-03-13T16:42:45.975Z,5.03
2019-03-13T16:45:52.300Z,4.84
2019-03-13T16:48:58.945Z,4.77
2019-03-13T16:52:05.537Z,4.70
2019-03-13T16:55:15.061Z,4.50
2019-03-13T16:58:22.581Z,4.43
2019-03-13T17:01:29.871Z,4.26
2019-03-13T17:04:36.814Z,4.16
2019-03-13T17:07:43.923Z,3.97
2019-03-13T17:10:54.457Z,3.81
2019-03-13T17:14:02.191Z,3.91
2019-03-13T17:17:08.958Z,3.78
2019-03-13T17:20:17.970Z,3.78
2019-03-13T17:23:24.820Z,3.75
2019-03-13T17:26:31.373Z,3.60
2019-03-13T17:29:38.446Z,3.49
2019-03-13T17:32:45.223Z,3.45
2019-03-13T17:35:53.286Z,3.47
2019-03-13T17:39:00.163Z,3.38
2019-03-13T17:42:08.581Z,3.45
2019-03-13T17:45:17.041Z,3.47
2019-03-13T17:48:23.867Z,3.49
2019-03-13T17:51:32.387Z,3.53
2019-03-13T17:54:39.735Z,3.55
2019-03-13T17:57:48.027Z,3.46
2019-03-13T18:00:55.667Z,3.39
2019-03-13T18:04:02.599Z,3.28
2019-03-13T18:07:10.380Z,3.36
2019-03-13T18:10:18.051Z,3.43
2019-03-13T18:13:25.647Z,3.53
2019-03-13T18:16:32.295Z,3.40
2019-03-13T18:19:39.472Z,3.30
2019-03-13T18:22:48.538Z,3.34
2019-03-13T18:25:55.742Z,3.45
2019-03-13T18:29:02.468Z,3.43
2019-03-13T18:32:09.364Z,3.56
2019-03-13T18:35:16.472Z,3.63
2019-03-13T18:38:23.559Z,3.56
2019-03-13T18:41:30.413Z,3.54
2019-03-13T18:44:38.104Z,3.53
2019-03-13T18:47:45.181Z,3.48
2019-03-13T18:50:51.629Z,3.35
2019-03-13T18:53:58.615Z,3.45
2019-03-13T18:57:05.543Z,3.27
2019-03-13T19:00:21.254Z,3.28
2019-03-13T19:03:27.897Z,3.28
2019-03-13T19:06:37.473Z,3.27
2019-03-13T19:09:47.350Z,3.19
2019-03-13T19:12:56.011Z,3.15
2019-03-13T19:16:03.123Z,3.21
2019-03-13T19:19:11.713Z,3.33
2019-03-13T19:22:19.427Z,3.32
2019-03-13T19:25:26.108Z,3.34
2019-03-13T19:28:33.055Z,3.34
2019-03-13T19:31:40.011Z,3.30
2019-03-13T19:34:47.160Z,3.36
2019-03-13T19:37:54.340Z,3.34
2019-03-13T19:41:00.899Z,3.45
2019-03-13T19:44:07.445Z,3.41
2019-03-13T19:47:14.216Z,3.45
2019-03-13T19:50:20.905Z,3.41
2019-03-13T19:53:27.220Z,3.46
2019-03-13T19:56:35.259Z,3.48
2019-03-13T19:59:42.352Z,3.34
2019-03-13T20:02:59.404Z,3.25
2019-03-13T20:05:57.648Z,3.09
2019-03-13T20:09:05.481Z,2.99
2019-03-13T20:12:14.729Z,3.01
2019-03-13T20:15:24.905Z,3.00
2019-03-13T20:18:32.237Z,3.10
2019-03-13T20:21:39.501Z,3.14
2019-03-13T20:24:46.501Z,3.18
2019-03-13T20:27:54.671Z,3.17
2019-03-13T20:31:01.565Z,3.18
2019-03-13T20:34:08.422Z,3.04
2019-03-13T20:37:15.069Z,3.01
2019-03-13T20:40:24.743Z,2.94
2019-03-13T20:43:31.253Z,2.94
2019-03-13T20:46:38.329Z,2.85
2019-03-13T20:49:47.397Z,2.86
2019-03-13T20:52:54.272Z,2.77
2019-03-13T20:56:01.540Z,2.87
2019-03-13T20:59:08.650Z,2.92
2019-03-13T21:02:15.749Z,2.76
2019-03-13T21:05:22.488Z,2.73
2019-03-13T21:08:31.976Z,2.65
2019-03-13T21:11:39.570Z,2.63
2019-03-13T21:14:47.665Z,2.66
2019-03-13T21:17:54.949Z,2.56
2019-03-13T21:21:01.670Z,2.52
2019-03-13T21:24:08.770Z,2.45
2019-03-13T21:27:15.374Z,2.53
2019-03-13T21:30:23.493Z,2.70
2019-03-13T21:33:29.955Z,2.73
2019-03-13T21:36:38.475Z,2.73
2019-03-13T21:39:45.156Z,2.85
2019-03-13T21:42:54.535Z,2.83
2019-03-13T21:46:00.611Z,2.84
2019-03-13T21:49:08.849Z,2.95
2019-03-13T21:52:15.060Z,3.01
2019-03-13T21:55:22.068Z,2.98
2019-03-13T21:58:29.587Z,3.03
2019-03-13T22:01:37.095Z,3.08
2019-03-13T22:04:43.716Z,3.00
2019-03-13T22:07:50.858Z,3.10
2019-03-13T22:10:57.805Z,3.05
2019-03-13T22:14:04.708Z,3.13
2019-03-13T22:17:11.613Z,3.25
2019-03-13T22:20:18.321Z,3.18
2019-03-13T22:23:24.913Z,3.19
2019-03-13T22:26:31.673Z,3.26
2019-03-13T22:29:38.454Z,3.23
2019-03-13T22:32:45.734Z,3.19
2019-03-13T22:35:52.438Z,3.13
2019-03-13T22:38:59.201Z,3.00
2019-03-13T22:42:05.824Z,3.04
2019-03-13T22:45:12.976Z,2.92
2019-03-13T22:48:19.627Z,2.83
2019-03-13T22:51:27.144Z,2.82
2019-03-13T22:54:34.093Z,2.83
2019-03-13T22:57:40.842Z,2.80
2019-03-13T23:00:59.600Z,2.80
2019-03-13T23:04:08.115Z,2.80
2019-03-13T23:07:14.877Z,2.97
2019-03-13T23:10:31.866Z,2.93
2019-03-13T23:13:39.937Z,2.92
2019-03-13T23:16:46.223Z,2.92
2019-03-13T23:19:52.640Z,2.97
2019-03-13T23:22:59.225Z,2.88
2019-03-13T23:26:06.075Z,2.97
2019-03-13T23:29:12.617Z,3.03
2019-03-13T23:32:19.137Z,3.04
2019-03-13T23:35:25.366Z,3.08
2019-03-13T23:38:31.752Z,3.07
2019-03-13T23:41:39.096Z,2.90
2019-03-13T23:44:45.487Z,2.82
2019-03-13T23:47:51.952Z,2.92
2019-03-13T23:50:58.823Z,2.82
2019-03-13T23:54:05.493Z,2.83
2019-03-13T23:57:12.332Z,2.89
